sensor_id;sensor_type;location;lat;lon;timestamp;P1;durP1;ratioP1;P2;durP2;ratioP2
59145;SDS011;44928;53.074;6.646;2022-12-29T00:01:29;6.97;;;2.97;;
59145;SDS011;44928;53.074;6.646;2022-12-29T00:03:56;5.55;;;2.40;;
59145;SDS011;44928;53.074;6.646;2022-12-29T00:06:22;6.43;;;2.55;;
59145;SDS011;44928;53.074;6.646;2022-12-29T00:08:47;7.07;;;2.75;;
59145;SDS011;44928;53.074;6.646;2022-12-29T00:11:17;6.10;;;2.47;;
59145;SDS011;44928;53.074;6.646;2022-12-29T00:13:44;5.82;;;2.60;;
59145;SDS011;44928;53.074;6.646;2022-12-29T00:16:28;7.78;;;3.10;;
59145;SDS011;44928;53.074;6.646;2022-12-29T00:18:55;7.45;;;2.90;;
59145;SDS011;44928;53.074;6.646;2022-12-29T00:21:22;6.95;;;2.78;;
59145;SDS011;44928;53.074;6.646;2022-12-29T00:24:09;6.57;;;3.15;;
59145;SDS011;44928;53.074;6.646;2022-12-29T00:27:13;6.35;;;2.83;;
59145;SDS011;44928;53.074;6.646;2022-12-29T00:29:57;6.45;;;2.78;;
59145;SDS011;44928;53.074;6.646;2022-12-29T00:32:41;5.63;;;2.72;;
59145;SDS011;44928;53.074;6.646;2022-12-29T00:35:30;7.32;;;2.72;;
59145;SDS011;44928;53.074;6.646;2022-12-29T00:38:01;6.28;;;3.00;;
59145;SDS011;44928;53.074;6.646;2022-12-29T00:40:48;6.03;;;2.80;;
59145;SDS011;44928;53.074;6.646;2022-12-29T00:43:32;6.15;;;2.70;;
59145;SDS011;44928;53.074;6.646;2022-12-29T00:46:16;6.72;;;2.70;;
59145;SDS011;44928;53.074;6.646;2022-12-29T00:48:42;6.75;;;2.67;;
59145;SDS011;44928;53.074;6.646;2022-12-29T00:51:26;6.78;;;3.00;;
59145;SDS011;44928;53.074;6.646;2022-12-29T00:53:52;6.95;;;3.25;;
59145;SDS011;44928;53.074;6.646;2022-12-29T00:56:18;5.97;;;2.55;;
59145;SDS011;44928;53.074;6.646;2022-12-29T00:58:44;6.63;;;3.38;;
59145;SDS011;44928;53.074;6.646;2022-12-29T01:01:09;7.57;;;3.08;;
59145;SDS011;44928;53.074;6.646;2022-12-29T01:03:36;7.15;;;2.97;;
59145;SDS011;44928;53.074;6.646;2022-12-29T01:06:03;6.38;;;2.45;;
59145;SDS011;44928;53.074;6.646;2022-12-29T01:08:30;7.05;;;2.80;;
59145;SDS011;44928;53.074;6.646;2022-12-29T01:10:59;7.25;;;2.88;;
59145;SDS011;44928;53.074;6.646;2022-12-29T01:13:26;6.85;;;2.92;;
59145;SDS011;44928;53.074;6.646;2022-12-29T01:15:52;7.15;;;3.08;;
59145;SDS011;44928;53.074;6.646;2022-12-29T01:18:18;6.75;;;2.80;;
59145;SDS011;44928;53.074;6.646;2022-12-29T01:20:45;6.15;;;2.70;;
59145;SDS011;44928;53.074;6.646;2022-12-29T01:23:10;5.53;;;2.35;;
59145;SDS011;44928;53.074;6.646;2022-12-29T01:25:36;7.70;;;2.53;;
59145;SDS011;44928;53.074;6.646;2022-12-29T01:28:02;7.30;;;3.05;;
59145;SDS011;44928;53.074;6.646;2022-12-29T01:30:28;6.45;;;2.58;;
59145;SDS011;44928;53.074;6.646;2022-12-29T01:32:53;7.57;;;2.88;;
59145;SDS011;44928;53.074;6.646;2022-12-29T01:35:19;6.63;;;2.30;;
59145;SDS011;44928;53.074;6.646;2022-12-29T01:37:45;6.90;;;3.03;;
59145;SDS011;44928;53.074;6.646;2022-12-29T01:40:11;5.72;;;2.45;;
59145;SDS011;44928;53.074;6.646;2022-12-29T01:42:37;5.75;;;2.38;;
59145;SDS011;44928;53.074;6.646;2022-12-29T01:45:07;8.10;;;2.85;;
59145;SDS011;44928;53.074;6.646;2022-12-29T01:47:38;5.70;;;2.30;;
59145;SDS011;44928;53.074;6.646;2022-12-29T01:50:25;8.52;;;2.40;;
59145;SDS011;44928;53.074;6.646;2022-12-29T01:55:48;7.70;;;2.50;;
59145;SDS011;44928;53.074;6.646;2022-12-29T01:58:19;5.88;;;2.38;;
59145;SDS011;44928;53.074;6.646;2022-12-29T02:00:47;5.40;;;1.90;;
59145;SDS011;44928;53.074;6.646;2022-12-29T02:03:13;6.00;;;2.28;;
59145;SDS011;44928;53.074;6.646;2022-12-29T02:05:49;6.88;;;2.60;;
59145;SDS011;44928;53.074;6.646;2022-12-29T02:08:40;5.70;;;2.38;;
59145;SDS011;44928;53.074;6.646;2022-12-29T02:11:08;5.72;;;2.17;;
59145;SDS011;44928;53.074;6.646;2022-12-29T02:13:34;5.93;;;2.30;;
59145;SDS011;44928;53.074;6.646;2022-12-29T02:32:03;6.72;;;1.92;;
59145;SDS011;44928;53.074;6.646;2022-12-29T02:41:30;7.68;;;2.28;;
59145;SDS011;44928;53.074;6.646;2022-12-29T02:43:38;6.35;;;2.25;;
59145;SDS011;44928;53.074;6.646;2022-12-29T02:46:36;6.05;;;1.90;;
59145;SDS011;44928;53.074;6.646;2022-12-29T02:49:19;5.05;;;1.88;;
59145;SDS011;44928;53.074;6.646;2022-12-29T02:52:07;6.30;;;1.88;;
59145;SDS011;44928;53.074;6.646;2022-12-29T02:54:39;5.63;;;1.85;;
59145;SDS011;44928;53.074;6.646;2022-12-29T02:57:15;7.22;;;2.00;;
59145;SDS011;44928;53.074;6.646;2022-12-29T03:07:52;4.13;;;1.20;;
59145;SDS011;44928;53.074;6.646;2022-12-29T03:13:02;2.80;;;1.17;;
59145;SDS011;44928;53.074;6.646;2022-12-29T03:15:55;3.35;;;1.40;;
59145;SDS011;44928;53.074;6.646;2022-12-29T03:21:47;5.15;;;1.40;;
59145;SDS011;44928;53.074;6.646;2022-12-29T03:24:39;3.67;;;1.33;;
59145;SDS011;44928;53.074;6.646;2022-12-29T03:27:09;3.85;;;1.10;;
59145;SDS011;44928;53.074;6.646;2022-12-29T03:29:39;4.55;;;1.15;;
59145;SDS011;44928;53.074;6.646;2022-12-29T03:32:11;4.30;;;1.20;;
59145;SDS011;44928;53.074;6.646;2022-12-29T03:34:38;2.30;;;1.00;;
59145;SDS011;44928;53.074;6.646;2022-12-29T03:37:10;5.22;;;1.20;;
59145;SDS011;44928;53.074;6.646;2022-12-29T03:39:39;4.18;;;1.42;;
59145;SDS011;44928;53.074;6.646;2022-12-29T03:42:09;3.88;;;1.00;;
59145;SDS011;44928;53.074;6.646;2022-12-29T03:44:39;2.83;;;1.10;;
59145;SDS011;44928;53.074;6.646;2022-12-29T03:47:07;3.85;;;1.15;;
59145;SDS011;44928;53.074;6.646;2022-12-29T03:49:35;3.97;;;1.17;;
59145;SDS011;44928;53.074;6.646;2022-12-29T03:52:00;4.28;;;1.20;;
59145;SDS011;44928;53.074;6.646;2022-12-29T03:54:26;2.60;;;1.17;;
59145;SDS011;44928;53.074;6.646;2022-12-29T03:56:52;3.47;;;1.13;;
59145;SDS011;44928;53.074;6.646;2022-12-29T03:59:18;4.00;;;1.30;;
59145;SDS011;44928;53.074;6.646;2022-12-29T04:01:44;5.15;;;1.23;;
59145;SDS011;44928;53.074;6.646;2022-12-29T04:04:10;5.00;;;1.20;;
59145;SDS011;44928;53.074;6.646;2022-12-29T04:06:35;3.53;;;1.00;;
59145;SDS011;44928;53.074;6.646;2022-12-29T04:09:01;5.95;;;1.42;;
59145;SDS011;44928;53.074;6.646;2022-12-29T04:11:27;2.28;;;0.90;;
59145;SDS011;44928;53.074;6.646;2022-12-29T04:13:53;4.82;;;1.40;;
59145;SDS011;44928;53.074;6.646;2022-12-29T04:16:18;4.18;;;1.10;;
59145;SDS011;44928;53.074;6.646;2022-12-29T04:18:44;3.67;;;0.95;;
59145;SDS011;44928;53.074;6.646;2022-12-29T04:21:10;5.18;;;1.10;;
59145;SDS011;44928;53.074;6.646;2022-12-29T04:23:37;6.07;;;1.17;;
59145;SDS011;44928;53.074;6.646;2022-12-29T04:26:04;3.35;;;1.00;;
59145;SDS011;44928;53.074;6.646;2022-12-29T04:28:34;5.15;;;1.02;;
59145;SDS011;44928;53.074;6.646;2022-12-29T04:31:00;4.53;;;0.93;;
59145;SDS011;44928;53.074;6.646;2022-12-29T04:33:26;6.88;;;1.15;;
59145;SDS011;44928;53.074;6.646;2022-12-29T04:35:52;4.88;;;1.17;;
59145;SDS011;44928;53.074;6.646;2022-12-29T04:38:19;5.97;;;1.00;;
59145;SDS011;44928;53.074;6.646;2022-12-29T04:40:46;6.57;;;1.15;;
59145;SDS011;44928;53.074;6.646;2022-12-29T04:43:12;5.10;;;0.88;;
59145;SDS011;44928;53.074;6.646;2022-12-29T04:45:39;3.80;;;0.88;;
59145;SDS011;44928;53.074;6.646;2022-12-29T04:48:09;4.70;;;1.10;;
59145;SDS011;44928;53.074;6.646;2022-12-29T04:50:34;4.43;;;0.90;;
59145;SDS011;44928;53.074;6.646;2022-12-29T04:53:00;4.13;;;0.68;;
59145;SDS011;44928;53.074;6.646;2022-12-29T04:55:26;3.88;;;1.13;;
59145;SDS011;44928;53.074;6.646;2022-12-29T04:57:52;4.35;;;0.85;;
59145;SDS011;44928;53.074;6.646;2022-12-29T05:00:17;5.53;;;0.90;;
59145;SDS011;44928;53.074;6.646;2022-12-29T05:02:44;7.50;;;1.13;;
59145;SDS011;44928;53.074;6.646;2022-12-29T05:05:10;3.38;;;0.70;;
59145;SDS011;44928;53.074;6.646;2022-12-29T05:07:36;6.10;;;1.25;;
59145;SDS011;44928;53.074;6.646;2022-12-29T05:10:02;6.93;;;1.40;;
59145;SDS011;44928;53.074;6.646;2022-12-29T05:12:29;6.38;;;1.30;;
59145;SDS011;44928;53.074;6.646;2022-12-29T05:14:59;3.53;;;0.80;;
59145;SDS011;44928;53.074;6.646;2022-12-29T05:17:25;5.97;;;1.08;;
59145;SDS011;44928;53.074;6.646;2022-12-29T05:19:51;7.32;;;1.23;;
59145;SDS011;44928;53.074;6.646;2022-12-29T05:22:17;7.82;;;1.20;;
59145;SDS011;44928;53.074;6.646;2022-12-29T05:24:43;9.35;;;1.42;;
59145;SDS011;44928;53.074;6.646;2022-12-29T05:27:09;8.43;;;1.67;;
59145;SDS011;44928;53.074;6.646;2022-12-29T05:29:34;8.35;;;1.33;;
59145;SDS011;44928;53.074;6.646;2022-12-29T05:32:00;9.15;;;1.55;;
59145;SDS011;44928;53.074;6.646;2022-12-29T05:34:26;8.65;;;1.55;;
59145;SDS011;44928;53.074;6.646;2022-12-29T05:36:52;9.13;;;1.77;;
59145;SDS011;44928;53.074;6.646;2022-12-29T05:39:17;5.53;;;1.30;;
59145;SDS011;44928;53.074;6.646;2022-12-29T05:41:43;9.57;;;1.80;;
59145;SDS011;44928;53.074;6.646;2022-12-29T05:44:12;10.93;;;1.55;;
59145;SDS011;44928;53.074;6.646;2022-12-29T05:46:38;10.32;;;1.70;;
59145;SDS011;44928;53.074;6.646;2022-12-29T05:49:04;8.07;;;1.02;;
59145;SDS011;44928;53.074;6.646;2022-12-29T05:51:30;10.52;;;1.67;;
59145;SDS011;44928;53.074;6.646;2022-12-29T05:53:56;7.45;;;1.40;;
59145;SDS011;44928;53.074;6.646;2022-12-29T05:56:22;7.95;;;1.30;;
59145;SDS011;44928;53.074;6.646;2022-12-29T05:58:48;9.82;;;1.58;;
59145;SDS011;44928;53.074;6.646;2022-12-29T06:01:14;8.95;;;1.70;;
59145;SDS011;44928;53.074;6.646;2022-12-29T06:03:40;6.22;;;1.10;;
59145;SDS011;44928;53.074;6.646;2022-12-29T06:06:06;9.32;;;1.38;;
59145;SDS011;44928;53.074;6.646;2022-12-29T06:08:32;6.78;;;1.35;;
59145;SDS011;44928;53.074;6.646;2022-12-29T06:10:57;5.90;;;1.42;;
59145;SDS011;44928;53.074;6.646;2022-12-29T06:13:23;8.30;;;1.67;;
59145;SDS011;44928;53.074;6.646;2022-12-29T06:15:49;4.38;;;0.80;;
59145;SDS011;44928;53.074;6.646;2022-12-29T06:18:15;7.38;;;1.23;;
59145;SDS011;44928;53.074;6.646;2022-12-29T06:20:41;8.18;;;1.25;;
59145;SDS011;44928;53.074;6.646;2022-12-29T06:23:07;7.22;;;1.45;;
59145;SDS011;44928;53.074;6.646;2022-12-29T06:25:33;8.25;;;1.35;;
59145;SDS011;44928;53.074;6.646;2022-12-29T06:28:01;6.50;;;0.98;;
59145;SDS011;44928;53.074;6.646;2022-12-29T06:30:28;6.03;;;1.23;;
59145;SDS011;44928;53.074;6.646;2022-12-29T06:32:54;11.20;;;2.17;;
59145;SDS011;44928;53.074;6.646;2022-12-29T06:35:20;10.68;;;2.00;;
59145;SDS011;44928;53.074;6.646;2022-12-29T06:37:47;8.32;;;1.40;;
59145;SDS011;44928;53.074;6.646;2022-12-29T06:40:14;8.20;;;1.33;;
59145;SDS011;44928;53.074;6.646;2022-12-29T06:42:40;9.07;;;1.67;;
59145;SDS011;44928;53.074;6.646;2022-12-29T06:45:06;9.45;;;1.35;;
59145;SDS011;44928;53.074;6.646;2022-12-29T06:47:32;13.13;;;2.45;;
59145;SDS011;44928;53.074;6.646;2022-12-29T06:49:59;12.23;;;1.48;;
59145;SDS011;44928;53.074;6.646;2022-12-29T06:52:25;10.43;;;1.70;;
59145;SDS011;44928;53.074;6.646;2022-12-29T06:54:51;12.43;;;1.80;;
59145;SDS011;44928;53.074;6.646;2022-12-29T06:57:17;7.50;;;1.45;;
59145;SDS011;44928;53.074;6.646;2022-12-29T06:59:42;7.43;;;1.55;;
59145;SDS011;44928;53.074;6.646;2022-12-29T07:02:10;11.35;;;1.73;;
59145;SDS011;44928;53.074;6.646;2022-12-29T07:04:36;13.82;;;1.83;;
59145;SDS011;44928;53.074;6.646;2022-12-29T07:07:02;13.98;;;1.90;;
59145;SDS011;44928;53.074;6.646;2022-12-29T07:09:28;13.38;;;1.58;;
59145;SDS011;44928;53.074;6.646;2022-12-29T07:11:53;9.23;;;1.88;;
59145;SDS011;44928;53.074;6.646;2022-12-29T07:14:19;10.05;;;1.77;;
59145;SDS011;44928;53.074;6.646;2022-12-29T07:16:52;9.15;;;1.50;;
59145;SDS011;44928;53.074;6.646;2022-12-29T07:19:18;8.70;;;1.63;;
59145;SDS011;44928;53.074;6.646;2022-12-29T07:21:44;8.60;;;1.63;;
59145;SDS011;44928;53.074;6.646;2022-12-29T07:24:10;8.60;;;1.52;;
59145;SDS011;44928;53.074;6.646;2022-12-29T07:26:35;7.78;;;1.75;;
59145;SDS011;44928;53.074;6.646;2022-12-29T07:29:02;10.85;;;1.55;;
59145;SDS011;44928;53.074;6.646;2022-12-29T07:31:28;9.18;;;1.88;;
59145;SDS011;44928;53.074;6.646;2022-12-29T07:33:54;12.98;;;1.95;;
59145;SDS011;44928;53.074;6.646;2022-12-29T07:36:20;10.23;;;1.85;;
59145;SDS011;44928;53.074;6.646;2022-12-29T07:38:46;9.70;;;1.90;;
59145;SDS011;44928;53.074;6.646;2022-12-29T07:41:11;9.15;;;1.80;;
59145;SDS011;44928;53.074;6.646;2022-12-29T07:43:37;14.50;;;2.03;;
59145;SDS011;44928;53.074;6.646;2022-12-29T07:46:03;9.80;;;1.70;;
59145;SDS011;44928;53.074;6.646;2022-12-29T07:48:29;12.45;;;2.20;;
59145;SDS011;44928;53.074;6.646;2022-12-29T07:50:55;9.35;;;1.60;;
59145;SDS011;44928;53.074;6.646;2022-12-29T07:53:21;10.40;;;2.33;;
59145;SDS011;44928;53.074;6.646;2022-12-29T07:55:47;8.98;;;1.75;;
59145;SDS011;44928;53.074;6.646;2022-12-29T07:58:12;9.52;;;1.70;;
59145;SDS011;44928;53.074;6.646;2022-12-29T08:00:38;10.57;;;1.80;;
59145;SDS011;44928;53.074;6.646;2022-12-29T08:03:05;11.68;;;1.77;;
59145;SDS011;44928;53.074;6.646;2022-12-29T08:05:31;9.93;;;2.13;;
59145;SDS011;44928;53.074;6.646;2022-12-29T08:07:58;10.82;;;1.95;;
59145;SDS011;44928;53.074;6.646;2022-12-29T08:10:24;10.70;;;2.45;;
59145;SDS011;44928;53.074;6.646;2022-12-29T08:12:50;9.75;;;1.60;;
59145;SDS011;44928;53.074;6.646;2022-12-29T08:15:16;10.70;;;2.08;;
59145;SDS011;44928;53.074;6.646;2022-12-29T08:17:41;13.68;;;2.40;;
59145;SDS011;44928;53.074;6.646;2022-12-29T08:20:07;10.00;;;1.85;;
59145;SDS011;44928;53.074;6.646;2022-12-29T08:22:34;8.98;;;1.83;;
59145;SDS011;44928;53.074;6.646;2022-12-29T08:25:00;8.38;;;1.45;;
59145;SDS011;44928;53.074;6.646;2022-12-29T08:27:26;12.65;;;2.47;;
59145;SDS011;44928;53.074;6.646;2022-12-29T08:29:51;13.05;;;2.58;;
59145;SDS011;44928;53.074;6.646;2022-12-29T08:32:17;12.13;;;2.45;;
59145;SDS011;44928;53.074;6.646;2022-12-29T08:34:43;15.88;;;2.40;;
59145;SDS011;44928;53.074;6.646;2022-12-29T08:37:09;14.98;;;2.10;;
59145;SDS011;44928;53.074;6.646;2022-12-29T08:39:35;10.73;;;2.00;;
59145;SDS011;44928;53.074;6.646;2022-12-29T08:42:00;17.42;;;2.22;;
59145;SDS011;44928;53.074;6.646;2022-12-29T08:44:26;14.68;;;2.53;;
59145;SDS011;44928;53.074;6.646;2022-12-29T08:46:52;16.10;;;2.28;;
59145;SDS011;44928;53.074;6.646;2022-12-29T08:49:18;16.88;;;2.42;;
59145;SDS011;44928;53.074;6.646;2022-12-29T08:51:43;11.38;;;2.08;;
59145;SDS011;44928;53.074;6.646;2022-12-29T08:54:09;16.73;;;2.88;;
59145;SDS011;44928;53.074;6.646;2022-12-29T08:56:35;13.65;;;2.17;;
59145;SDS011;44928;53.074;6.646;2022-12-29T08:59:01;13.82;;;2.42;;
59145;SDS011;44928;53.074;6.646;2022-12-29T09:01:27;16.05;;;2.70;;
59145;SDS011;44928;53.074;6.646;2022-12-29T09:03:53;12.98;;;2.10;;
59145;SDS011;44928;53.074;6.646;2022-12-29T09:06:19;19.17;;;2.72;;
59145;SDS011;44928;53.074;6.646;2022-12-29T09:08:45;14.10;;;2.78;;
59145;SDS011;44928;53.074;6.646;2022-12-29T09:11:13;11.32;;;2.20;;
59145;SDS011;44928;53.074;6.646;2022-12-29T09:13:42;11.98;;;1.73;;
59145;SDS011;44928;53.074;6.646;2022-12-29T09:16:08;14.27;;;2.60;;
59145;SDS011;44928;53.074;6.646;2022-12-29T09:18:33;10.10;;;2.58;;
59145;SDS011;44928;53.074;6.646;2022-12-29T09:21:00;14.88;;;2.58;;
59145;SDS011;44928;53.074;6.646;2022-12-29T09:23:27;12.70;;;2.22;;
59145;SDS011;44928;53.074;6.646;2022-12-29T09:25:54;10.18;;;1.83;;
59145;SDS011;44928;53.074;6.646;2022-12-29T09:28:20;10.32;;;2.00;;
59145;SDS011;44928;53.074;6.646;2022-12-29T09:30:56;11.65;;;2.28;;
59145;SDS011;44928;53.074;6.646;2022-12-29T09:33:22;10.82;;;2.45;;
59145;SDS011;44928;53.074;6.646;2022-12-29T09:35:55;12.13;;;2.17;;
59145;SDS011;44928;53.074;6.646;2022-12-29T09:38:23;11.77;;;2.17;;
59145;SDS011;44928;53.074;6.646;2022-12-29T09:40:51;15.52;;;2.70;;
59145;SDS011;44928;53.074;6.646;2022-12-29T09:46:25;11.05;;;2.22;;
59145;SDS011;44928;53.074;6.646;2022-12-29T09:51:25;11.98;;;2.63;;
59145;SDS011;44928;53.074;6.646;2022-12-29T09:53:53;14.80;;;2.15;;
59145;SDS011;44928;53.074;6.646;2022-12-29T09:56:23;13.30;;;2.60;;
59145;SDS011;44928;53.074;6.646;2022-12-29T09:59:00;12.80;;;2.35;;
59145;SDS011;44928;53.074;6.646;2022-12-29T10:01:36;10.18;;;1.77;;
59145;SDS011;44928;53.074;6.646;2022-12-29T10:04:09;13.07;;;2.05;;
59145;SDS011;44928;53.074;6.646;2022-12-29T10:06:46;9.25;;;2.03;;
59145;SDS011;44928;53.074;6.646;2022-12-29T10:09:21;12.52;;;1.80;;
59145;SDS011;44928;53.074;6.646;2022-12-29T10:25:02;13.60;;;2.10;;
59145;SDS011;44928;53.074;6.646;2022-12-29T10:27:40;7.85;;;1.85;;
59145;SDS011;44928;53.074;6.646;2022-12-29T10:30:10;10.70;;;2.00;;
59145;SDS011;44928;53.074;6.646;2022-12-29T10:32:39;11.35;;;2.10;;
59145;SDS011;44928;53.074;6.646;2022-12-29T10:35:12;9.90;;;2.15;;
59145;SDS011;44928;53.074;6.646;2022-12-29T10:40:38;9.65;;;2.15;;
59145;SDS011;44928;53.074;6.646;2022-12-29T10:43:51;10.60;;;1.75;;
59145;SDS011;44928;53.074;6.646;2022-12-29T10:46:08;9.30;;;1.48;;
59145;SDS011;44928;53.074;6.646;2022-12-29T10:48:36;11.63;;;1.92;;
59145;SDS011;44928;53.074;6.646;2022-12-29T10:51:04;9.00;;;1.80;;
59145;SDS011;44928;53.074;6.646;2022-12-29T10:53:36;11.27;;;1.58;;
59145;SDS011;44928;53.074;6.646;2022-12-29T10:56:16;10.67;;;1.80;;
59145;SDS011;44928;53.074;6.646;2022-12-29T10:59:22;10.35;;;1.75;;
59145;SDS011;44928;53.074;6.646;2022-12-29T11:01:56;9.15;;;1.77;;
59145;SDS011;44928;53.074;6.646;2022-12-29T11:07:14;10.70;;;2.08;;
59145;SDS011;44928;53.074;6.646;2022-12-29T11:09:42;12.38;;;2.17;;
59145;SDS011;44928;53.074;6.646;2022-12-29T11:12:19;10.30;;;1.75;;
59145;SDS011;44928;53.074;6.646;2022-12-29T11:15:26;15.35;;;2.42;;
59145;SDS011;44928;53.074;6.646;2022-12-29T11:17:48;19.88;;;2.55;;
59145;SDS011;44928;53.074;6.646;2022-12-29T11:20:35;16.08;;;3.33;;
59145;SDS011;44928;53.074;6.646;2022-12-29T11:23:03;9.73;;;1.45;;
59145;SDS011;44928;53.074;6.646;2022-12-29T11:28:36;11.73;;;2.30;;
59145;SDS011;44928;53.074;6.646;2022-12-29T11:31:03;14.35;;;2.22;;
59145;SDS011;44928;53.074;6.646;2022-12-29T11:33:32;10.07;;;2.20;;
59145;SDS011;44928;53.074;6.646;2022-12-29T11:36:04;15.10;;;2.13;;
59145;SDS011;44928;53.074;6.646;2022-12-29T11:38:42;8.68;;;1.73;;
59145;SDS011;44928;53.074;6.646;2022-12-29T11:41:13;14.32;;;2.75;;
59145;SDS011;44928;53.074;6.646;2022-12-29T11:43:48;15.95;;;2.65;;
59145;SDS011;44928;53.074;6.646;2022-12-29T11:46:19;11.13;;;2.03;;
59145;SDS011;44928;53.074;6.646;2022-12-29T11:48:48;16.67;;;2.72;;
59145;SDS011;44928;53.074;6.646;2022-12-29T11:51:21;11.50;;;2.13;;
59145;SDS011;44928;53.074;6.646;2022-12-29T11:53:51;13.27;;;3.00;;
59145;SDS011;44928;53.074;6.646;2022-12-29T11:56:21;15.98;;;2.70;;
59145;SDS011;44928;53.074;6.646;2022-12-29T11:59:13;12.93;;;2.45;;
59145;SDS011;44928;53.074;6.646;2022-12-29T12:01:57;13.80;;;2.72;;
59145;SDS011;44928;53.074;6.646;2022-12-29T12:04:28;12.27;;;2.67;;
59145;SDS011;44928;53.074;6.646;2022-12-29T12:09:40;14.65;;;2.63;;
59145;SDS011;44928;53.074;6.646;2022-12-29T12:15:03;16.08;;;3.33;;
59145;SDS011;44928;53.074;6.646;2022-12-29T12:20:05;16.15;;;2.97;;
59145;SDS011;44928;53.074;6.646;2022-12-29T12:22:53;15.80;;;3.45;;
59145;SDS011;44928;53.074;6.646;2022-12-29T12:25:42;15.75;;;2.92;;
59145;SDS011;44928;53.074;6.646;2022-12-29T12:28:15;18.60;;;3.05;;
59145;SDS011;44928;53.074;6.646;2022-12-29T12:31:11;20.80;;;3.50;;
59145;SDS011;44928;53.074;6.646;2022-12-29T12:33:44;14.35;;;2.35;;
59145;SDS011;44928;53.074;6.646;2022-12-29T12:38:53;14.98;;;3.20;;
59145;SDS011;44928;53.074;6.646;2022-12-29T12:41:51;10.77;;;1.83;;
59145;SDS011;44928;53.074;6.646;2022-12-29T12:52:56;14.93;;;2.67;;
59145;SDS011;44928;53.074;6.646;2022-12-29T12:58:04;12.30;;;2.28;;
59145;SDS011;44928;53.074;6.646;2022-12-29T13:00:50;15.75;;;3.00;;
59145;SDS011;44928;53.074;6.646;2022-12-29T13:06:45;16.73;;;2.42;;
59145;SDS011;44928;53.074;6.646;2022-12-29T13:09:28;13.00;;;2.38;;
59145;SDS011;44928;53.074;6.646;2022-12-29T13:17:44;13.38;;;2.50;;
59145;SDS011;44928;53.074;6.646;2022-12-29T13:20:42;14.80;;;2.92;;
59145;SDS011;44928;53.074;6.646;2022-12-29T13:28:25;12.82;;;2.40;;
59145;SDS011;44928;53.074;6.646;2022-12-29T13:31:04;14.15;;;2.55;;
59145;SDS011;44928;53.074;6.646;2022-12-29T13:33:48;13.65;;;2.60;;
59145;SDS011;44928;53.074;6.646;2022-12-29T13:36:40;11.10;;;2.30;;
59145;SDS011;44928;53.074;6.646;2022-12-29T13:39:54;13.20;;;2.35;;
59145;SDS011;44928;53.074;6.646;2022-12-29T13:41:58;11.75;;;1.95;;
59145;SDS011;44928;53.074;6.646;2022-12-29T13:44:36;14.13;;;2.33;;
59145;SDS011;44928;53.074;6.646;2022-12-29T13:47:14;14.25;;;2.35;;
59145;SDS011;44928;53.074;6.646;2022-12-29T13:49:54;12.02;;;1.73;;
59145;SDS011;44928;53.074;6.646;2022-12-29T13:55:27;12.20;;;2.17;;
59145;SDS011;44928;53.074;6.646;2022-12-29T14:03:52;9.98;;;1.58;;
59145;SDS011;44928;53.074;6.646;2022-12-29T14:08:50;15.65;;;2.45;;
59145;SDS011;44928;53.074;6.646;2022-12-29T14:11:20;10.85;;;1.63;;
59145;SDS011;44928;53.074;6.646;2022-12-29T14:13:49;12.13;;;1.70;;
59145;SDS011;44928;53.074;6.646;2022-12-29T14:16:34;11.57;;;2.17;;
59145;SDS011;44928;53.074;6.646;2022-12-29T14:19:43;10.30;;;2.08;;
59145;SDS011;44928;53.074;6.646;2022-12-29T14:21:58;14.00;;;3.33;;
59145;SDS011;44928;53.074;6.646;2022-12-29T14:34:50;13.55;;;2.75;;
59145;SDS011;44928;53.074;6.646;2022-12-29T14:42:55;15.60;;;2.85;;
59145;SDS011;44928;53.074;6.646;2022-12-29T14:47:53;9.98;;;1.70;;
59145;SDS011;44928;53.074;6.646;2022-12-29T14:50:23;12.20;;;2.35;;
59145;SDS011;44928;53.074;6.646;2022-12-29T14:52:58;12.77;;;2.40;;
59145;SDS011;44928;53.074;6.646;2022-12-29T14:57:57;12.25;;;2.10;;
59145;SDS011;44928;53.074;6.646;2022-12-29T15:00:30;12.20;;;2.10;;
59145;SDS011;44928;53.074;6.646;2022-12-29T15:03:05;13.90;;;2.78;;
59145;SDS011;44928;53.074;6.646;2022-12-29T15:08:22;12.63;;;2.42;;
59145;SDS011;44928;53.074;6.646;2022-12-29T15:11:14;9.70;;;1.77;;
59145;SDS011;44928;53.074;6.646;2022-12-29T15:13:43;12.63;;;2.28;;
59145;SDS011;44928;53.074;6.646;2022-12-29T15:18:56;9.05;;;2.00;;
59145;SDS011;44928;53.074;6.646;2022-12-29T15:21:24;11.73;;;2.40;;
59145;SDS011;44928;53.074;6.646;2022-12-29T15:24:00;11.27;;;2.35;;
59145;SDS011;44928;53.074;6.646;2022-12-29T15:26:40;12.25;;;2.30;;
59145;SDS011;44928;53.074;6.646;2022-12-29T15:29:30;12.23;;;2.38;;
59145;SDS011;44928;53.074;6.646;2022-12-29T15:32:01;12.80;;;1.88;;
59145;SDS011;44928;53.074;6.646;2022-12-29T15:34:45;11.02;;;2.00;;
59145;SDS011;44928;53.074;6.646;2022-12-29T15:37:23;11.23;;;2.78;;
59145;SDS011;44928;53.074;6.646;2022-12-29T15:39:54;14.32;;;2.08;;
59145;SDS011;44928;53.074;6.646;2022-12-29T15:45:05;9.27;;;1.60;;
59145;SDS011;44928;53.074;6.646;2022-12-29T15:47:35;11.40;;;2.28;;
59145;SDS011;44928;53.074;6.646;2022-12-29T15:52:48;13.30;;;1.95;;
59145;SDS011;44928;53.074;6.646;2022-12-29T15:55:48;9.00;;;1.80;;
59145;SDS011;44928;53.074;6.646;2022-12-29T15:58:21;10.75;;;1.48;;
59145;SDS011;44928;53.074;6.646;2022-12-29T16:00:49;11.27;;;2.35;;
59145;SDS011;44928;53.074;6.646;2022-12-29T16:03:18;11.38;;;1.83;;
59145;SDS011;44928;53.074;6.646;2022-12-29T16:05:52;10.88;;;2.03;;
59145;SDS011;44928;53.074;6.646;2022-12-29T16:11:03;12.23;;;2.20;;
59145;SDS011;44928;53.074;6.646;2022-12-29T16:13:49;9.50;;;1.80;;
59145;SDS011;44928;53.074;6.646;2022-12-29T16:16:20;11.90;;;2.38;;
59145;SDS011;44928;53.074;6.646;2022-12-29T16:18:52;12.07;;;2.00;;
59145;SDS011;44928;53.074;6.646;2022-12-29T16:21:20;10.10;;;2.03;;
59145;SDS011;44928;53.074;6.646;2022-12-29T16:24:18;12.88;;;2.70;;
59145;SDS011;44928;53.074;6.646;2022-12-29T16:29:20;12.98;;;3.30;;
59145;SDS011;44928;53.074;6.646;2022-12-29T16:31:51;12.20;;;1.95;;
59145;SDS011;44928;53.074;6.646;2022-12-29T16:36:55;8.43;;;1.88;;
59145;SDS011;44928;53.074;6.646;2022-12-29T16:39:33;12.75;;;3.10;;
59145;SDS011;44928;53.074;6.646;2022-12-29T16:45:04;11.55;;;2.42;;
59145;SDS011;44928;53.074;6.646;2022-12-29T16:47:41;15.05;;;2.10;;
59145;SDS011;44928;53.074;6.646;2022-12-29T16:50:10;12.98;;;2.15;;
59145;SDS011;44928;53.074;6.646;2022-12-29T16:52:38;9.55;;;1.80;;
59145;SDS011;44928;53.074;6.646;2022-12-29T16:55:04;8.75;;;2.13;;
59145;SDS011;44928;53.074;6.646;2022-12-29T16:57:31;8.27;;;1.45;;
59145;SDS011;44928;53.074;6.646;2022-12-29T17:02:31;9.02;;;2.05;;
59145;SDS011;44928;53.074;6.646;2022-12-29T17:04:59;7.75;;;1.45;;
59145;SDS011;44928;53.074;6.646;2022-12-29T17:07:26;8.52;;;1.50;;
59145;SDS011;44928;53.074;6.646;2022-12-29T17:09:53;4.50;;;1.20;;
59145;SDS011;44928;53.074;6.646;2022-12-29T17:12:20;7.15;;;1.85;;
59145;SDS011;44928;53.074;6.646;2022-12-29T17:20:14;7.28;;;1.30;;
59145;SDS011;44928;53.074;6.646;2022-12-29T17:22:46;6.97;;;1.10;;
59145;SDS011;44928;53.074;6.646;2022-12-29T17:25:13;8.30;;;1.35;;
59145;SDS011;44928;53.074;6.646;2022-12-29T17:27:42;7.75;;;1.77;;
59145;SDS011;44928;53.074;6.646;2022-12-29T17:30:15;6.40;;;1.52;;
59145;SDS011;44928;53.074;6.646;2022-12-29T17:32:47;7.68;;;1.35;;
59145;SDS011;44928;53.074;6.646;2022-12-29T17:35:17;12.30;;;2.42;;
59145;SDS011;44928;53.074;6.646;2022-12-29T17:37:44;9.50;;;1.70;;
59145;SDS011;44928;53.074;6.646;2022-12-29T17:40:13;6.75;;;1.27;;
59145;SDS011;44928;53.074;6.646;2022-12-29T17:42:41;11.80;;;2.20;;
59145;SDS011;44928;53.074;6.646;2022-12-29T17:47:42;10.17;;;1.53;;
59145;SDS011;44928;53.074;6.646;2022-12-29T17:50:10;12.27;;;2.10;;